createdAt,value
2023-05-24T00:45:31.798Z,98622.34
2023-05-24T00:50:38.457Z,98620.30
2023-05-24T00:55:41.815Z,98622.08
2023-05-24T01:00:49.909Z,98620.25
2023-05-24T01:05:53.020Z,98626.63
2023-05-24T01:11:04.827Z,98629.36
2023-05-24T01:16:11.369Z,98628.71
2023-05-24T01:21:48.852Z,98625.45
2023-05-24T01:27:13.450Z,98627.52
2023-05-24T01:32:19.192Z,98638.83
2023-05-24T01:37:22.716Z,98640.62
2023-05-24T01:43:16.757Z,98642.58
2023-05-24T01:48:30.409Z,98647.56
2023-05-24T01:53:39.870Z,98646.36
2023-05-24T01:58:46.113Z,98645.41
2023-05-24T02:03:51.342Z,98649.13
2023-05-24T02:08:54.697Z,98640.52
2023-05-24T02:13:57.794Z,98642.05
2023-05-24T02:19:01.013Z,98644.33
2023-05-24T02:24:04.657Z,98645.73
2023-05-24T02:29:08.018Z,98646.93
2023-05-24T02:34:15.961Z,98646.95
2023-05-24T02:39:19.018Z,98645.88
2023-05-24T02:44:22.085Z,98643.36
2023-05-24T02:49:25.163Z,98647.94
2023-05-24T02:54:28.212Z,98650.25
2023-05-24T02:59:32.414Z,98654.37
2023-05-24T03:04:36.260Z,98651.01
2023-05-24T03:09:39.639Z,98652.37
2023-05-24T03:14:42.912Z,98653.05
2023-05-24T03:19:46.115Z,98655.03
2023-05-24T03:24:49.331Z,98653.74
2023-05-24T03:29:52.721Z,98657.45
2023-05-24T03:34:59.648Z,98662.02
2023-05-24T03:40:07.160Z,98662.43
2023-05-24T03:45:39.109Z,98671.89
2023-05-24T03:50:44.336Z,98674.88
2023-05-24T03:55:47.908Z,98677.70
2023-05-24T04:00:51.083Z,98678.46
2023-05-24T04:05:55.112Z,98689.98
2023-05-24T04:10:58.392Z,98700.61
2023-05-24T04:16:01.742Z,98704.66
2023-05-24T04:21:05.159Z,98710.22
2023-05-24T04:26:10.399Z,98714.60
2023-05-24T04:31:15.833Z,98728.45
2023-05-24T04:36:19.451Z,98735.39
2023-05-24T04:41:22.789Z,98741.30
2023-05-24T04:46:27.451Z,98743.67
2023-05-24T04:51:30.654Z,98750.45
2023-05-24T04:56:33.692Z,98755.67
2023-05-24T05:01:37.047Z,98763.42
2023-05-24T05:06:40.743Z,98769.22
2023-05-24T05:11:44.016Z,98774.45
2023-05-24T05:16:47.301Z,98781.33
2023-05-24T05:21:56.516Z,98790.66
2023-05-24T05:26:59.585Z,98800.63
2023-05-24T05:32:02.825Z,98804.33
2023-05-24T05:37:06.133Z,98806.16
2023-05-24T05:42:09.268Z,98810.11
2023-05-24T05:47:12.498Z,98815.66
2023-05-24T05:52:15.647Z,98821.30
2023-05-24T05:57:24.520Z,98826.39
2023-05-24T06:02:27.792Z,98829.63
2023-05-24T06:07:31.272Z,98835.46
2023-05-24T06:12:34.541Z,98838.11
2023-05-24T06:17:37.953Z,98840.02
2023-05-24T06:22:42.727Z,98838.21
2023-05-24T06:27:45.979Z,98851.91
2023-05-24T06:32:49.147Z,98858.45
2023-05-24T06:37:52.603Z,98864.44
2023-05-24T06:42:55.757Z,98870.53
2023-05-24T06:47:59.070Z,98873.40
2023-05-24T06:53:03.197Z,98880.87
2023-05-24T06:58:07.236Z,98886.77
2023-05-24T07:03:10.431Z,98888.93
2023-05-24T07:08:13.584Z,98894.48
2023-05-24T07:13:16.952Z,98898.78
2023-05-24T07:18:20.136Z,98904.85
2023-05-24T07:23:23.320Z,98904.33
2023-05-24T07:28:27.316Z,98911.95
2023-05-24T07:33:30.529Z,98917.77
2023-05-24T07:38:35.090Z,98926.17
2023-05-24T07:43:38.197Z,98927.60
2023-05-24T07:48:41.541Z,98929.45
2023-05-24T07:53:44.875Z,98936.16
2023-05-24T07:58:49.336Z,98943.17
2023-05-24T08:06:28.217Z,98949.74
2023-05-24T08:11:31.438Z,98954.02
2023-05-24T08:16:34.540Z,98959.62
2023-05-24T08:21:37.943Z,98967.73
2023-05-24T08:26:41.474Z,98973.63
2023-05-24T08:31:45.021Z,98980.04
2023-05-24T08:36:49.339Z,98990.89
2023-05-24T08:42:08.610Z,98995.59
2023-05-24T08:47:16.384Z,99004.46
2023-05-24T08:52:21.316Z,99005.13
2023-05-24T08:57:26.925Z,99013.67
2023-05-24T09:02:30.499Z,99020.48
2023-05-24T09:07:34.305Z,99027.41
2023-05-24T09:12:39.604Z,99036.09
2023-05-24T09:17:43.217Z,99035.95
2023-05-24T09:22:51.116Z,99040.09
2023-05-24T09:33:32.633Z,99056.30
2023-05-24T09:38:36.799Z,99065.45
2023-05-24T09:43:50.221Z,99072.10
2023-05-24T09:49:00.184Z,99073.64
2023-05-24T09:54:03.822Z,99083.34
2023-05-24T09:59:08.771Z,99084.60
2023-05-24T10:04:12.772Z,99086.66
2023-05-24T10:09:16.314Z,99091.40
2023-05-24T10:14:20.116Z,99100.05
2023-05-24T10:19:23.620Z,99109.90
2023-05-24T10:24:33.026Z,99114.16
2023-05-24T10:33:32.657Z,99118.38
2023-05-24T10:38:42.099Z,99122.14
2023-05-24T10:44:00.891Z,99123.88
2023-05-24T10:49:15.240Z,99122.30
2023-05-24T10:54:20.213Z,99130.77
2023-05-24T10:59:37.567Z,99134.79
2023-05-24T11:04:46.616Z,99137.07
2023-05-24T11:09:58.254Z,99146.45
2023-05-24T11:15:03.129Z,99150.45
2023-05-24T11:20:09.389Z,99158.52
2023-05-24T11:25:13.035Z,99159.02
2023-05-24T11:30:16.303Z,99159.90
2023-05-24T11:35:20.296Z,99159.28
2023-05-24T11:40:25.121Z,99165.88
2023-05-24T11:45:29.613Z,99166.64
2023-05-24T11:50:42.209Z,99172.05
2023-05-24T11:55:54.585Z,99174.25
2023-05-24T12:00:57.532Z,99176.50
2023-05-24T12:06:00.673Z,99179.21
2023-05-24T12:11:05.388Z,99178.88
2023-05-24T12:16:13.200Z,99173.30
2023-05-24T12:21:16.308Z,99177.96
2023-05-24T12:26:22.805Z,99178.92
2023-05-24T12:33:30.750Z,99175.75
2023-05-24T12:38:33.874Z,99174.92
2023-05-24T12:43:37.243Z,99165.80
2023-05-24T12:48:40.452Z,99166.59
2023-05-24T12:53:43.904Z,99163.23
2023-05-24T12:58:47.554Z,99173.25
2023-05-24T13:03:51.029Z,99174.14
2023-05-24T13:08:54.267Z,99178.11
2023-05-24T13:13:59.924Z,99180.19
2023-05-24T13:19:03.302Z,99177.46
2023-05-24T13:24:07.940Z,99168.70
2023-05-24T13:34:18.663Z,99170.19
2023-05-24T13:39:22.530Z,99166.90
2023-05-24T13:44:25.762Z,99176.50
2023-05-24T13:49:29.828Z,99174.80
2023-05-24T13:54:33.340Z,99174.40
2023-05-24T13:59:36.493Z,99172.16
2023-05-24T14:04:39.614Z,99174.49
2023-05-24T14:09:42.927Z,99177.03
2023-05-24T14:20:00.085Z,99181.42
2023-05-24T14:25:03.681Z,99175.95
2023-05-24T14:30:08.406Z,99180.75
2023-05-24T14:35:11.652Z,99170.55
2023-05-24T14:40:16.954Z,99172.98
2023-05-24T14:45:21.796Z,99174.28
2023-05-24T14:50:24.844Z,99176.82
2023-05-24T14:55:27.952Z,99173.68
2023-05-24T15:00:31.128Z,99174.55
2023-05-24T15:05:35.301Z,99184.25
2023-05-24T15:10:41.383Z,99183.15
2023-05-24T15:15:44.739Z,99194.13
2023-05-24T15:20:48.747Z,99190.06
2023-05-24T15:25:52.377Z,99187.67
2023-05-24T15:36:32.768Z,99189.43
2023-05-24T15:41:37.658Z,99192.59
2023-05-24T15:46:41.474Z,99195.44
2023-05-24T15:57:04.182Z,99199.27
2023-05-24T16:02:08.553Z,99201.86
2023-05-24T16:07:11.700Z,99208.41
2023-05-24T16:12:14.897Z,99216.11
2023-05-24T16:17:18.312Z,99215.45
2023-05-24T16:22:21.447Z,99217.86
2023-05-24T16:27:24.563Z,99228.01
2023-05-24T16:38:08.115Z,99236.85
2023-05-24T16:43:11.323Z,99242.23
2023-05-24T16:48:14.929Z,99246.22
2023-05-24T16:53:18.368Z,99255.58
2023-05-24T16:58:22.612Z,99256.50
2023-05-24T17:03:30.358Z,99263.03
2023-05-24T17:08:35.725Z,99265.34
2023-05-24T17:13:38.935Z,99269.36
2023-05-24T17:18:42.352Z,99268.95
2023-05-24T17:23:45.612Z,99275.83
2023-05-24T17:28:48.851Z,99275.99
2023-05-24T17:33:52.038Z,99275.33
2023-05-24T17:38:55.215Z,99281.59
2023-05-24T17:43:59.147Z,99284.29
2023-05-24T17:49:02.978Z,99286.90
2023-05-24T17:54:06.521Z,99290.67
2023-05-24T17:59:10.210Z,99295.45
2023-05-24T18:04:13.439Z,99300.88
2023-05-24T18:09:17.084Z,99305.36
2023-05-24T18:33:36.686Z,99339.85
2023-05-24T18:38:40.310Z,99348.31
2023-05-24T18:43:43.542Z,99357.70
2023-05-24T18:48:47.556Z,99364.94
2023-05-24T18:53:51.891Z,99367.84
2023-05-24T18:59:00.598Z,99376.54
2023-05-24T19:04:04.168Z,99385.58
2023-05-24T19:09:07.322Z,99396.86
2023-05-24T19:14:13.924Z,99403.39
2023-05-24T19:19:17.134Z,99407.15
2023-05-24T19:24:21.459Z,99409.80
2023-05-24T19:35:02.283Z,99409.34
2023-05-24T19:40:07.163Z,99396.40
2023-05-24T19:45:10.626Z,99394.04
2023-05-24T19:50:13.797Z,99395.96
2023-05-24T19:55:16.915Z,99397.35
2023-05-24T20:00:20.033Z,99404.98
2023-05-24T20:05:23.462Z,99398.22
2023-05-24T20:10:28.763Z,99388.05
2023-05-24T20:15:31.936Z,99379.74
2023-05-24T20:20:35.619Z,99379.42
2023-05-24T20:25:38.793Z,99384.50
2023-05-24T20:30:45.858Z,99384.02
2023-05-24T20:35:50.050Z,99377.75
2023-05-24T20:40:53.323Z,99389.66
2023-05-24T22:45:33.273Z,99456.53
2023-05-24T22:50:49.080Z,99465.90
2023-05-24T22:55:52.369Z,99470.31
2023-05-24T23:00:55.454Z,99469.61
2023-05-24T23:06:04.510Z,99473.12
2023-05-24T23:11:10.718Z,99474.29
2023-05-24T23:34:27.840Z,99479.16
2023-05-24T23:39:31.076Z,99477.04
2023-05-24T23:44:34.258Z,99478.85
2023-05-24T23:49:37.525Z,99478.25
2023-05-24T23:54:40.721Z,99483.07
2023-05-24T23:59:43.967Z,99470.55
